createdAt,value
2019-01-28T00:01:09.920Z,80.09
2019-01-28T00:03:37.146Z,79.68
2019-01-28T00:06:04.655Z,79.62
2019-01-28T00:08:31.924Z,79.37
2019-01-28T00:10:59.141Z,79.32
2019-01-28T00:13:26.352Z,79.39
2019-01-28T00:15:53.687Z,79.05
2019-01-28T00:18:20.893Z,78.91
2019-01-28T00:20:48.137Z,79.27
2019-01-28T00:23:15.826Z,78.98
2019-01-28T00:25:43.690Z,78.93
2019-01-28T00:28:10.881Z,78.72
2019-01-28T00:30:38.130Z,78.41
2019-01-28T00:33:05.359Z,78.51
2019-01-28T00:35:32.678Z,78.53
2019-01-28T00:37:59.991Z,78.48
2019-01-28T00:40:27.194Z,78.33
2019-01-28T00:42:54.389Z,78.10
2019-01-28T00:45:22.330Z,78.00
2019-01-28T00:47:49.541Z,78.14
2019-01-28T00:50:16.786Z,78.32
2019-01-28T00:52:43.996Z,78.09
2019-01-28T00:55:11.836Z,77.95
2019-01-28T00:57:39.076Z,77.98
2019-01-28T01:00:10.202Z,77.95
2019-01-28T01:02:37.422Z,77.62
2019-01-28T01:05:04.879Z,77.89
2019-01-28T01:07:32.096Z,77.86
2019-01-28T01:09:59.308Z,78.00
2019-01-28T01:12:26.574Z,77.11
2019-01-28T01:14:53.786Z,77.61
2019-01-28T01:17:21.021Z,77.90
2019-01-28T01:19:48.295Z,77.79
2019-01-28T01:22:15.531Z,77.68
2019-01-28T01:24:42.735Z,77.54
2019-01-28T01:27:09.988Z,77.30
2019-01-28T01:29:37.186Z,77.16
2019-01-28T01:32:04.395Z,77.31
2019-01-28T01:34:31.629Z,77.39
2019-01-28T01:36:58.839Z,77.42
2019-01-28T01:39:26.044Z,77.35
2019-01-28T01:41:53.280Z,77.30
2019-01-28T01:44:20.488Z,77.18
2019-01-28T01:46:47.736Z,77.11
2019-01-28T01:49:14.933Z,77.00
2019-01-28T01:51:42.140Z,77.07
2019-01-28T01:54:09.390Z,76.88
2019-01-28T01:56:36.677Z,76.76
2019-01-28T01:59:04.091Z,76.89
2019-01-28T02:01:31.353Z,77.13
2019-01-28T02:03:58.555Z,76.86
2019-01-28T02:06:25.750Z,76.81
2019-01-28T02:08:53.014Z,76.85
2019-01-28T02:11:20.229Z,76.93
2019-01-28T02:13:47.446Z,76.80
2019-01-28T02:16:14.670Z,76.71
2019-01-28T02:18:41.881Z,77.03
2019-01-28T02:21:09.419Z,76.87
2019-01-28T02:23:36.644Z,76.72
2019-01-28T02:26:03.875Z,76.64
2019-01-28T02:28:31.081Z,76.56
2019-01-28T02:30:58.445Z,76.41
2019-01-28T02:33:36.729Z,76.33
2019-01-28T02:36:04.156Z,76.21
2019-01-28T02:38:31.383Z,76.00
2019-01-28T02:40:58.584Z,76.01
2019-01-28T02:43:25.836Z,75.94
2019-01-28T02:45:53.052Z,75.83
2019-01-28T02:48:20.265Z,75.75
2019-01-28T02:50:47.548Z,75.71
2019-01-28T02:53:14.761Z,75.64
2019-01-28T02:55:42.046Z,75.58
2019-01-28T02:58:09.328Z,75.51
2019-01-28T03:00:36.524Z,75.43
2019-01-28T03:03:03.839Z,75.38
2019-01-28T03:05:31.112Z,75.35
2019-01-28T03:07:58.338Z,75.28
2019-01-28T03:10:25.646Z,75.26
2019-01-28T03:12:52.906Z,75.14
2019-01-28T03:15:20.219Z,74.67
2019-01-28T03:17:47.842Z,75.28
2019-01-28T03:20:15.348Z,75.96
2019-01-28T03:22:42.707Z,75.87
2019-01-28T03:25:11.023Z,75.91
2019-01-28T03:27:40.298Z,75.88
2019-01-28T03:30:10.457Z,76.27
2019-01-28T03:32:37.673Z,76.65
2019-01-28T03:35:05.509Z,76.78
2019-01-28T03:37:32.737Z,76.74
2019-01-28T03:39:59.953Z,77.02
2019-01-28T03:42:27.214Z,77.19
2019-01-28T03:44:54.411Z,77.33
2019-01-28T03:47:21.628Z,77.73
2019-01-28T03:49:48.871Z,77.68
2019-01-28T03:52:16.757Z,78.37
2019-01-28T03:54:44.003Z,78.53
2019-01-28T03:57:11.269Z,78.60
2019-01-28T03:59:38.468Z,78.75
2019-01-28T04:02:05.686Z,78.44
2019-01-28T04:04:32.940Z,78.96
2019-01-28T04:07:00.143Z,78.62
2019-01-28T04:09:27.366Z,78.63
2019-01-28T04:11:54.619Z,78.94
2019-01-28T04:14:21.834Z,78.57
2019-01-28T04:16:49.054Z,78.52
2019-01-28T04:19:16.283Z,78.58
2019-01-28T04:21:43.497Z,79.11
2019-01-28T04:24:10.803Z,79.11
2019-01-28T04:26:38.040Z,79.71
2019-01-28T04:29:05.248Z,79.43
2019-01-28T04:31:32.513Z,79.46
2019-01-28T04:33:59.717Z,79.96
2019-01-28T04:36:26.940Z,80.17
2019-01-28T04:38:56.165Z,80.07
2019-01-28T04:41:23.405Z,79.80
2019-01-28T04:43:50.612Z,79.87
2019-01-28T04:46:17.906Z,80.15
2019-01-28T04:48:45.169Z,80.59
2019-01-28T04:51:12.373Z,80.93
2019-01-28T04:53:39.588Z,80.21
2019-01-28T04:56:06.873Z,80.57
2019-01-28T04:58:34.142Z,80.23
2019-01-28T05:01:01.393Z,80.22
2019-01-28T05:03:28.643Z,80.20
2019-01-28T05:05:55.855Z,80.12
2019-01-28T05:08:23.074Z,79.95
2019-01-28T05:10:50.315Z,80.39
2019-01-28T05:13:17.534Z,80.60
2019-01-28T05:15:44.741Z,80.00
2019-01-28T05:18:11.980Z,80.39
2019-01-28T05:20:39.208Z,80.71
2019-01-28T05:23:06.413Z,80.68
2019-01-28T05:25:33.684Z,80.59
2019-01-28T05:28:00.936Z,80.94
2019-01-28T05:30:28.244Z,81.47
2019-01-28T05:32:55.507Z,81.88
2019-01-28T05:35:22.922Z,82.23
2019-01-28T05:37:50.347Z,81.67
2019-01-28T05:40:22.187Z,81.78
2019-01-28T05:42:49.478Z,81.92
2019-01-28T05:45:17.178Z,81.94
2019-01-28T05:47:44.552Z,82.31
2019-01-28T05:50:12.467Z,82.39
2019-01-28T05:52:39.665Z,82.07
2019-01-28T05:55:07.829Z,81.96
2019-01-28T05:57:35.079Z,81.94
2019-01-28T06:00:02.875Z,81.98
2019-01-28T06:02:30.082Z,82.45
2019-01-28T06:04:57.287Z,81.96
2019-01-28T06:07:24.550Z,82.32
2019-01-28T06:09:51.785Z,82.28
2019-01-28T06:12:19.058Z,81.93
2019-01-28T06:14:46.331Z,82.18
2019-01-28T06:17:13.556Z,82.50
2019-01-28T06:19:40.819Z,82.74
2019-01-28T06:22:08.031Z,82.59
2019-01-28T06:24:35.254Z,82.82
2019-01-28T06:27:02.537Z,82.63
2019-01-28T06:29:29.795Z,82.81
2019-01-28T06:31:57.017Z,82.77
2019-01-28T06:34:24.323Z,82.24
2019-01-28T06:36:51.540Z,81.74
2019-01-28T06:39:18.749Z,81.35
2019-01-28T06:41:46.025Z,81.50
2019-01-28T06:44:13.237Z,81.39
2019-01-28T06:46:40.459Z,81.50
2019-01-28T06:49:07.738Z,81.47
2019-01-28T06:51:34.957Z,81.19
2019-01-28T06:54:02.450Z,81.45
2019-01-28T06:56:29.688Z,80.98
2019-01-28T06:58:56.968Z,80.68
2019-01-28T07:01:24.318Z,80.52
2019-01-28T07:03:51.555Z,80.11
2019-01-28T07:06:18.808Z,80.08
2019-01-28T07:08:46.026Z,80.31
2019-01-28T07:11:13.246Z,79.87
2019-01-28T07:13:40.486Z,80.10
2019-01-28T07:16:07.679Z,80.06
2019-01-28T07:18:34.947Z,79.97
2019-01-28T07:21:02.159Z,80.16
2019-01-28T07:23:29.389Z,79.91
2019-01-28T07:25:56.629Z,80.27
2019-01-28T07:28:23.906Z,80.90
2019-01-28T07:30:51.116Z,81.48
2019-01-28T07:33:18.327Z,81.59
2019-01-28T07:35:45.595Z,81.60
2019-01-28T07:38:12.853Z,81.77
2019-01-28T07:40:40.051Z,82.61
2019-01-28T07:43:07.430Z,82.56
2019-01-28T07:45:45.095Z,82.91
2019-01-28T07:48:06.827Z,82.86
2019-01-28T07:50:34.062Z,82.97
2019-01-28T07:53:01.293Z,82.75
2019-01-28T07:55:28.538Z,82.65
2019-01-28T07:57:55.929Z,82.82
2019-01-28T08:00:25.000Z,82.43
2019-01-28T08:02:52.471Z,82.54
2019-01-28T08:05:19.821Z,82.52
2019-01-28T08:07:47.166Z,82.27
2019-01-28T08:10:15.447Z,82.50
2019-01-28T08:12:43.101Z,82.33
2019-01-28T08:15:12.586Z,82.42
2019-01-28T08:17:39.845Z,82.10
2019-01-28T08:20:11.563Z,81.77
2019-01-28T08:22:38.996Z,81.72
2019-01-28T08:25:07.787Z,81.90
2019-01-28T08:27:35.278Z,81.59
2019-01-28T08:30:03.814Z,81.50
2019-01-28T08:32:31.078Z,81.93
2019-01-28T08:35:00.524Z,82.01
2019-01-28T08:37:27.768Z,81.85
2019-01-28T08:39:55.741Z,82.16
2019-01-28T08:42:23.074Z,81.98
2019-01-28T08:44:50.342Z,82.06
2019-01-28T08:47:17.612Z,82.13
2019-01-28T08:52:26.660Z,82.72
2019-01-28T08:54:53.884Z,82.64
2019-01-28T08:57:21.130Z,82.80
2019-01-28T08:59:48.409Z,82.85
2019-01-28T09:02:15.640Z,82.84
2019-01-28T09:04:42.859Z,82.98
2019-01-28T09:07:10.104Z,82.99
2019-01-28T09:09:37.435Z,83.03
2019-01-28T09:12:04.867Z,83.18
2019-01-28T09:14:32.213Z,83.26
2019-01-28T09:16:59.776Z,83.42
2019-01-28T09:19:28.236Z,83.59
2019-01-28T09:21:55.551Z,83.64
2019-01-28T09:24:22.757Z,83.50
2019-01-28T09:26:50.017Z,83.32
2019-01-28T09:29:17.239Z,83.01
2019-01-28T09:31:44.538Z,82.74
2019-01-28T09:34:11.825Z,82.38
2019-01-28T09:36:39.434Z,81.99
2019-01-28T09:39:07.660Z,82.39
2019-01-28T09:41:35.717Z,82.18
2019-01-28T09:44:03.367Z,81.70
2019-01-28T09:46:30.567Z,81.49
2019-01-28T09:48:57.806Z,81.62
2019-01-28T09:51:25.083Z,81.76
2019-01-28T09:53:52.291Z,81.73
2019-01-28T09:56:19.709Z,80.84
2019-01-28T09:58:47.227Z,80.82
2019-01-28T10:01:14.583Z,80.20
2019-01-28T10:03:41.823Z,79.99
2019-01-28T10:06:09.346Z,80.07
2019-01-28T10:08:36.568Z,79.68
2019-01-28T10:11:03.868Z,79.60
2019-01-28T10:13:31.260Z,79.40
2019-01-28T10:15:58.482Z,79.43
2019-01-28T10:18:25.690Z,79.74
2019-01-28T10:20:52.935Z,80.29
2019-01-28T10:23:20.219Z,79.01
2019-01-28T10:25:47.466Z,78.57
2019-01-28T10:28:14.715Z,78.87
2019-01-28T10:30:42.427Z,79.07
2019-01-28T10:33:09.952Z,78.88
2019-01-28T10:35:38.288Z,79.27
2019-01-28T10:38:06.443Z,79.25
2019-01-28T10:40:35.012Z,78.06
2019-01-28T10:43:02.403Z,77.73
2019-01-28T10:45:29.634Z,77.71
2019-01-28T10:48:00.668Z,77.89
2019-01-28T10:50:27.253Z,78.15
2019-01-28T10:52:54.499Z,77.99
2019-01-28T10:55:22.174Z,78.21
2019-01-28T10:57:49.625Z,77.76
2019-01-28T11:00:28.143Z,78.01
2019-01-28T11:02:55.600Z,77.82
2019-01-28T11:05:23.017Z,78.04
2019-01-28T11:07:50.379Z,78.29
2019-01-28T11:10:18.689Z,77.77
2019-01-28T11:12:46.042Z,77.38
2019-01-28T11:15:16.773Z,77.25
2019-01-28T11:17:44.354Z,77.66
2019-01-28T11:20:11.925Z,77.60
2019-01-28T11:22:39.154Z,77.47
2019-01-28T11:25:10.478Z,78.50
2019-01-28T11:27:37.853Z,79.20
2019-01-28T11:30:12.877Z,79.20
2019-01-28T11:32:40.196Z,79.02
2019-01-28T11:35:08.166Z,78.53
2019-01-28T11:37:35.384Z,77.95
2019-01-28T11:40:03.299Z,77.89
2019-01-28T11:42:30.754Z,77.91
2019-01-28T11:44:58.301Z,78.66
2019-01-28T11:47:25.648Z,79.31
2019-01-28T11:49:53.008Z,79.19
2019-01-28T11:52:20.303Z,79.09
2019-01-28T11:54:47.510Z,79.71
2019-01-28T11:57:14.715Z,79.23
2019-01-28T11:59:41.954Z,79.40
2019-01-28T12:02:09.197Z,78.96
2019-01-28T12:04:36.459Z,79.15
2019-01-28T12:07:04.060Z,78.36
2019-01-28T12:09:31.254Z,78.81
2019-01-28T12:11:58.504Z,79.40
2019-01-28T12:14:25.707Z,79.25
2019-01-28T12:16:52.907Z,79.33
2019-01-28T12:19:20.147Z,78.69
2019-01-28T12:21:47.384Z,78.14
2019-01-28T12:24:14.591Z,78.28
2019-01-28T12:26:41.869Z,78.37
2019-01-28T12:29:11.667Z,78.91
2019-01-28T12:31:39.571Z,78.88
2019-01-28T12:34:07.291Z,78.75
2019-01-28T12:36:35.139Z,78.58
2019-01-28T12:39:04.892Z,79.16
2019-01-28T12:41:34.961Z,79.14
2019-01-28T12:44:02.210Z,79.96
2019-01-28T12:46:29.539Z,79.10
2019-01-28T12:48:56.799Z,78.69
2019-01-28T12:51:25.330Z,78.72
2019-01-28T12:53:54.076Z,78.67
2019-01-28T12:56:21.330Z,78.78
2019-01-28T12:58:50.023Z,77.86
2019-01-28T13:01:17.580Z,77.90
2019-01-28T13:03:44.948Z,77.74
2019-01-28T13:06:12.215Z,77.11
2019-01-28T13:08:40.597Z,76.56
2019-01-28T13:11:07.965Z,76.52
2019-01-28T13:13:35.192Z,77.22
2019-01-28T13:16:02.532Z,77.31
2019-01-28T13:18:29.784Z,77.06
2019-01-28T13:20:57.011Z,76.38
2019-01-28T13:23:24.343Z,76.86
2019-01-28T13:25:51.729Z,76.52
2019-01-28T13:28:20.751Z,76.28
2019-01-28T13:30:48.073Z,75.70
2019-01-28T13:33:17.336Z,72.31
2019-01-28T13:35:44.767Z,70.45
2019-01-28T13:38:12.020Z,68.58
2019-01-28T13:40:39.696Z,68.60
2019-01-28T13:43:07.017Z,68.77
2019-01-28T13:45:34.649Z,68.94
2019-01-28T13:48:03.560Z,68.89
2019-01-28T13:50:30.789Z,69.91
2019-01-28T13:52:58.143Z,68.83
2019-01-28T13:55:25.366Z,66.98
2019-01-28T13:57:52.591Z,66.23
2019-01-28T14:00:24.541Z,65.71
2019-01-28T14:02:52.242Z,67.17
2019-01-28T14:05:19.556Z,67.26
2019-01-28T14:07:47.020Z,67.55
2019-01-28T14:10:14.766Z,67.00
2019-01-28T14:12:41.965Z,66.34
2019-01-28T14:15:13.672Z,66.23
2019-01-28T14:17:40.871Z,66.26
2019-01-28T14:20:10.940Z,67.58
2019-01-28T14:22:38.167Z,67.81
2019-01-28T14:25:06.811Z,67.08
2019-01-28T14:27:34.108Z,67.70
2019-01-28T14:30:01.425Z,65.48
2019-01-28T14:32:28.651Z,65.16
2019-01-28T14:34:55.910Z,65.39
2019-01-28T14:37:23.108Z,63.99
2019-01-28T14:39:50.390Z,64.32
2019-01-28T14:42:17.684Z,64.10
2019-01-28T14:44:44.967Z,64.20
2019-01-28T14:47:12.191Z,65.93
2019-01-28T14:49:39.468Z,64.87
2019-01-28T14:52:06.665Z,65.49
2019-01-28T14:54:33.883Z,66.13
2019-01-28T14:57:01.246Z,66.02
2019-01-28T14:59:28.507Z,66.25
2019-01-28T15:01:55.732Z,67.17
2019-01-28T15:04:22.939Z,66.62
2019-01-28T15:06:50.218Z,66.58
2019-01-28T15:09:17.459Z,67.05
2019-01-28T15:11:44.705Z,66.99
2019-01-28T15:14:11.976Z,66.91
2019-01-28T15:16:39.187Z,67.48
2019-01-28T15:19:06.411Z,67.16
2019-01-28T15:21:33.961Z,67.44
2019-01-28T15:24:01.292Z,67.69
2019-01-28T15:26:28.571Z,67.71
2019-01-28T15:28:55.837Z,68.13
2019-01-28T15:31:23.098Z,68.01
2019-01-28T15:33:50.327Z,68.39
2019-01-28T15:36:17.549Z,68.35
2019-01-28T15:38:44.919Z,68.27
2019-01-28T15:41:13.200Z,68.02
2019-01-28T15:43:40.437Z,68.12
2019-01-28T15:46:07.673Z,68.30
2019-01-28T15:48:34.888Z,68.40
2019-01-28T15:51:02.686Z,67.91
2019-01-28T15:53:30.225Z,67.91
2019-01-28T15:55:57.718Z,68.20
2019-01-28T15:58:25.097Z,68.11
2019-01-28T16:00:52.484Z,68.12
2019-01-28T16:03:20.351Z,67.70
2019-01-28T16:05:47.566Z,67.34
2019-01-28T16:08:14.827Z,67.41
2019-01-28T16:10:42.228Z,67.57
2019-01-28T16:13:09.417Z,67.44
2019-01-28T16:15:41.922Z,68.10
2019-01-28T16:18:09.584Z,67.75
2019-01-28T16:20:37.529Z,67.81
2019-01-28T16:23:05.660Z,68.18
2019-01-28T16:25:32.868Z,68.22
2019-01-28T16:28:00.145Z,67.87
2019-01-28T16:30:28.260Z,68.00
2019-01-28T16:32:55.565Z,68.01
2019-01-28T16:35:22.961Z,68.19
2019-01-28T16:37:50.802Z,68.93
2019-01-28T16:40:19.605Z,69.46
2019-01-28T16:42:47.035Z,69.95
2019-01-28T16:45:15.083Z,70.24
2019-01-28T16:47:42.312Z,70.58
2019-01-28T16:50:11.780Z,70.68
2019-01-28T16:52:39.412Z,70.73
2019-01-28T16:55:08.221Z,71.13
2019-01-28T16:57:35.449Z,71.63
2019-01-28T17:00:05.344Z,71.72
2019-01-28T17:02:32.573Z,71.97
2019-01-28T17:04:59.778Z,72.16
2019-01-28T17:07:27.058Z,73.45
2019-01-28T17:09:54.493Z,74.78
2019-01-28T17:12:21.911Z,75.98
2019-01-28T17:14:49.131Z,76.93
2019-01-28T17:17:16.421Z,76.92
2019-01-28T17:19:43.636Z,77.98
2019-01-28T17:22:10.880Z,78.12
2019-01-28T17:24:40.941Z,78.21
2019-01-28T17:27:08.279Z,78.04
2019-01-28T17:29:35.913Z,77.95
2019-01-28T17:32:03.254Z,77.48
2019-01-28T17:34:30.467Z,77.23
2019-01-28T17:36:57.706Z,76.90
2019-01-28T17:39:27.036Z,76.31
2019-01-28T17:41:54.307Z,76.40
2019-01-28T17:44:21.792Z,75.66
2019-01-28T17:46:49.412Z,76.00
2019-01-28T17:49:16.622Z,75.88
2019-01-28T17:51:43.890Z,75.65
2019-01-28T17:54:11.129Z,75.49
2019-01-28T17:56:38.358Z,75.13
2019-01-28T17:59:05.794Z,75.06
2019-01-28T18:01:33.285Z,75.03
2019-01-28T18:04:00.651Z,75.05
2019-01-28T18:06:27.918Z,74.93
2019-01-28T18:08:55.146Z,74.99
2019-01-28T18:11:22.368Z,74.87
2019-01-28T18:13:49.638Z,74.72
2019-01-28T18:16:17.224Z,74.82
2019-01-28T18:18:44.777Z,74.68
2019-01-28T18:21:12.020Z,74.75
2019-01-28T18:23:52.387Z,74.80
2019-01-28T18:26:19.903Z,74.77
2019-01-28T18:28:48.558Z,74.67
2019-01-28T18:31:17.768Z,74.57
2019-01-28T18:33:45.018Z,74.50
2019-01-28T18:36:12.463Z,75.35
2019-01-28T18:38:39.671Z,77.07
2019-01-28T18:41:06.929Z,77.36
2019-01-28T18:43:34.236Z,77.37
2019-01-28T18:46:01.643Z,77.34
2019-01-28T18:48:28.879Z,76.71
2019-01-28T18:50:59.743Z,76.34
2019-01-28T18:53:25.305Z,76.24
2019-01-28T18:55:52.525Z,75.88
2019-01-28T18:58:19.741Z,75.99
2019-01-28T19:00:46.984Z,75.55
2019-01-28T19:03:14.202Z,75.36
2019-01-28T19:06:09.881Z,74.87
2019-01-28T19:09:08.646Z,74.82
2019-01-28T19:11:54.160Z,74.69
2019-01-28T19:14:52.956Z,74.58
2019-01-28T19:17:48.869Z,74.69
2019-01-28T19:20:26.730Z,74.64
2019-01-28T19:22:53.972Z,74.99
2019-01-28T19:25:21.212Z,75.46
2019-01-28T19:27:48.464Z,75.79
2019-01-28T19:30:18.202Z,75.66
2019-01-28T19:32:45.418Z,76.05
2019-01-28T19:35:12.645Z,75.86
2019-01-28T19:37:39.934Z,75.70
2019-01-28T19:40:08.878Z,75.81
2019-01-28T19:42:36.088Z,75.23
2019-01-28T19:45:05.585Z,74.88
2019-01-28T19:47:33.169Z,74.59
2019-01-28T19:50:01.693Z,73.83
2019-01-28T19:52:29.073Z,74.05
2019-01-28T19:54:56.435Z,74.12
2019-01-28T19:57:23.693Z,73.96
2019-01-28T19:59:50.931Z,73.75
2019-01-28T20:02:18.243Z,73.65
2019-01-28T20:04:45.594Z,73.87
2019-01-28T20:07:12.825Z,74.46
2019-01-28T20:09:40.054Z,74.97
2019-01-28T20:12:07.323Z,75.28
2019-01-28T20:14:34.810Z,75.61
2019-01-28T20:17:02.200Z,75.43
2019-01-28T20:19:29.428Z,75.36
2019-01-28T20:22:15.371Z,75.60
2019-01-28T20:24:42.779Z,75.37
2019-01-28T20:27:10.168Z,75.47
2019-01-28T20:29:37.391Z,75.32
2019-01-28T20:32:04.902Z,75.16
2019-01-28T20:34:32.168Z,75.36
2019-01-28T20:36:59.498Z,74.97
2019-01-28T20:39:26.750Z,75.07
2019-01-28T20:41:53.969Z,75.26
2019-01-28T20:44:21.356Z,74.92
2019-01-28T20:46:48.731Z,74.75
2019-01-28T20:49:16.068Z,74.49
2019-01-28T20:51:43.401Z,74.53
2019-01-28T20:54:10.624Z,74.55
2019-01-28T20:56:37.922Z,74.34
2019-01-28T20:59:05.344Z,74.70
2019-01-28T21:01:32.717Z,76.01
2019-01-28T21:04:00.038Z,76.76
2019-01-28T21:06:27.305Z,76.74
2019-01-28T21:08:54.528Z,76.64
2019-01-28T21:11:21.778Z,76.24
2019-01-28T21:13:48.984Z,75.83
2019-01-28T21:16:16.198Z,75.45
2019-01-28T21:18:43.464Z,75.00
2019-01-28T21:21:10.678Z,74.62
2019-01-28T21:23:37.886Z,74.39
2019-01-28T21:26:05.233Z,74.30
2019-01-28T21:28:32.470Z,74.20
2019-01-28T21:30:59.677Z,74.17
2019-01-28T21:33:26.910Z,74.49
2019-01-28T21:36:19.576Z,74.59
2019-01-28T21:38:51.124Z,74.65
2019-01-28T21:41:18.331Z,74.69
2019-01-28T21:43:45.585Z,74.59
2019-01-28T21:46:12.817Z,74.91
2019-01-28T21:48:40.071Z,74.79
2019-01-28T21:51:07.938Z,74.67
2019-01-28T21:53:35.181Z,74.66
2019-01-28T21:56:02.507Z,74.50
2019-01-28T21:58:29.987Z,74.59
2019-01-28T22:00:57.188Z,74.49
2019-01-28T22:03:25.083Z,74.31
2019-01-28T22:05:52.529Z,74.04
2019-01-28T22:08:19.723Z,74.05
2019-01-28T22:10:46.996Z,73.97
2019-01-28T22:13:14.321Z,74.08
2019-01-28T22:15:41.595Z,74.78
2019-01-28T22:18:08.835Z,74.32
2019-01-28T22:20:36.080Z,74.47
2019-01-28T22:23:03.705Z,74.58
2019-01-28T22:25:30.922Z,74.24
2019-01-28T22:27:58.171Z,74.04
2019-01-28T22:30:25.441Z,73.82
2019-01-28T22:32:55.503Z,73.70
2019-01-28T22:35:22.888Z,73.54
2019-01-28T22:37:50.104Z,73.46
2019-01-28T22:40:17.551Z,73.23
2019-01-28T22:42:44.814Z,72.89
2019-01-28T22:45:14.104Z,73.56
2019-01-28T22:47:41.318Z,73.62
2019-01-28T22:50:11.191Z,74.12
2019-01-28T22:52:38.422Z,74.07
2019-01-28T22:55:06.888Z,74.05
2019-01-28T22:57:34.124Z,73.80
2019-01-28T23:00:01.398Z,73.33
2019-01-28T23:02:28.699Z,73.22
2019-01-28T23:04:55.938Z,73.07
2019-01-28T23:07:23.191Z,72.89
2019-01-28T23:09:50.412Z,72.69
2019-01-28T23:12:17.621Z,72.51
2019-01-28T23:14:44.852Z,72.21
2019-01-28T23:17:12.082Z,72.15
2019-01-28T23:19:39.290Z,72.07
2019-01-28T23:22:06.558Z,71.97
2019-01-28T23:24:33.770Z,71.93
2019-01-28T23:27:00.994Z,71.91
2019-01-28T23:29:28.233Z,71.72
2019-01-28T23:31:55.444Z,71.71
2019-01-28T23:34:22.700Z,71.68
2019-01-28T23:36:49.886Z,71.64
2019-01-28T23:39:17.089Z,71.65
2019-01-28T23:41:44.316Z,71.61
2019-01-28T23:44:11.528Z,71.59
2019-01-28T23:46:38.736Z,71.54
2019-01-28T23:49:05.995Z,71.40
2019-01-28T23:51:33.252Z,71.50
2019-01-28T23:54:00.482Z,71.52
2019-01-28T23:56:27.739Z,71.39
2019-01-28T23:58:54.952Z,71.30
